Nearby METAR Reports

 

EGUW - Wattisham Raf, United Kingdom
Distance from station: SW 12mi, 19km
Updated: 20/02/2018 16:50
Light rain, Drizzle, Mostly cloudy
Light rain, Drizzle, Mostly cloudy
 Wind from N
Wind: N 17 mph , 28 km/h
Temperature: 6°C
Wind Chill: 2°C
Dew Point: 5°C
Humidity: 93%
Barometer: 1019 hPa
Summary: Light rain, Drizzle
Clouds: Mostly cloudy
Visibility: 6 miles , 10 km
Cloud details: Mostly cloudy 122 m
2018/02/20 16:50 EGUW 201650Z 36015KT 9999 -RADZ BKN004 06/05 Q1019 YLO2 TEMPO 4000 RADZ YLO2
EGUL - Lakenheath Raf, United Kingdom
Distance from station: WNW 29mi, 47km
Updated: 20/02/2018 16:56
Overcast
Overcast
 Wind from N
Wind: N 21 mph , 33 km/h, Gust: 31 mph , 50 km/h
Temperature: 6°C
Wind Chill: 1°C
Dew Point: 6°C
Humidity: 100%
Barometer: 1020 hPa
Clouds: Overcast
Visibility: 6 miles , 10 km
Cloud details: Overcast 274 m
2018/02/20 16:56 EGUL 201656Z AUTO 36018G27KT 9999 OVC009 06/06 A3012 RMK AO2 PK WND 35032/1558 RAE00DZB00E03 SLP203 P0000 T00620062 $
 
EGUN - Mildenhall Raf, United Kingdom
Distance from station: WNW 32mi, 51km
Updated: 20/02/2018 17:16
Overcast
Overcast
 Wind from N
Wind: N 14 mph , 22 km/h, Gust: 23 mph , 37 km/h
Temperature: 6°C
Wind Chill: 2°C
Dew Point: 6°C
Humidity: 100%
Barometer: 1020.3 hPa
Clouds: Overcast
Visibility: 6 miles , 10 km
Cloud details: Overcast 244 m
2018/02/20 17:16 EGUN 201716Z AUTO 36012G20KT 9999 OVC008 06/06 A3013 RMK AO2 CIG 008V010 SLP207 $
EGSH - Norwich Wea Cntr, United Kingdom
Distance from station: N 32mi, 52km
Updated: 20/02/2018 16:50
Light drizzle, Mostly cloudy
Light drizzle, Mostly cloudy
 Wind from E
Wind: E 14 mph , 22 km/h
Temperature: 5°C
Wind Chill: 1°C
Dew Point: 4°C
Humidity: 93%
Barometer: 1020 hPa
Summary: Light Drizzle
Clouds: Mostly cloudy
Visibility: 2 miles , 4 km
Cloud details: Mostly cloudy 152 m
2018/02/20 16:50 EGSH 201650Z 10012KT 3500 -DZ BKN005 05/04 Q1020
 
EGYM - Marham Raf, United Kingdom
Distance from station: NW 39mi, 62km
Updated: 20/02/2018 17:12
Light drizzle, Mostly cloudy
Light drizzle, Mostly cloudy
 Wind from N
Wind: N 17 mph , 28 km/h
Temperature: 6°C
Wind Chill: 2°C
Dew Point: 5°C
Humidity: 93%
Barometer: 1021 hPa
Summary: Light Drizzle
Clouds: Mostly cloudy
Visibility: 2 miles , 4 km
Cloud details: Few Clouds 152 m
Partly cloudy 305 m
Mostly cloudy 427 m
2018/02/20 17:12 EGYM 201712Z 01015KT 4000 -DZ FEW005 SCT010 BKN014 06/05 Q1021 GRN TEMPO 3000 SCT006 YLO1
EGSC - Cambridge, United Kingdom
Distance from station: W 43mi, 69km
Updated: 20/02/2018 17:20
Nearby showers, Mostly cloudy
Nearby showers, Mostly cloudy
 Wind from N
Wind: N 21 mph , 33 km/h
Temperature: 7°C
Wind Chill: 3°C
Dew Point: 4°C
Humidity: 81%
Barometer: 1021 hPa
Summary: Nearby Showers
Clouds: Mostly cloudy
Visibility: 6 miles , 10 km
Cloud details: Partly cloudy 396 m
Mostly cloudy 610 m
2018/02/20 17:20 EGSC 201720Z 36018KT 9999 VCSH SCT013 BKN020 07/04 Q1021
 
EGSS - Stansted Airport, United Kingdom
Distance from station: WSW 47mi, 76km
Updated: 20/02/2018 17:20
Overcast
Overcast
 Wind from NNW
Wind: NNW 21 mph , 33 km/h
Temperature: 6°C
Wind Chill: 1°C
Dew Point: 4°C
Humidity: 87%
Barometer: 1020 hPa
Clouds: Overcast
Visibility: 6 miles , 10 km
Cloud details: Mostly cloudy 427 m
Overcast 549 m
2018/02/20 17:20 EGSS 201720Z AUTO 34018KT 9999 BKN014 OVC018 06/04 Q1020
EGUO - Oakington, United Kingdom
Distance from station: W 47mi, 76km
Updated: 19/11/2017 06:50
NOT Current
Partly cloudy
Partly cloudy
 Wind from W
Wind: W 6 mph , 9 km/h
Temperature: 3°C
Wind Chill: 0°C
Dew Point: 3°C
Humidity: 100%
Barometer: 1023 hPa
Clouds: Partly cloudy
Visibility: 6 miles , 10 km
Cloud details: Few Clouds 1067 m
Partly cloudy 5486 m
2017/11/19 06:50 EGUO 190650Z 26005KT 9999 FEW035 SCT180 03/03 Q1023 BLU NOSIG
 
EGMC - Southend-On-Sea, United Kingdom
Distance from station: SSW 50mi, 80km
Updated: 20/02/2018 17:20
Light rain, Mostly cloudy
Light rain, Mostly cloudy
 Wind from NNW
Wind: NNW 14 mph , 22 km/h
Temperature: 6°C
Wind Chill: 2°C
Dew Point: 4°C
Humidity: 87%
Barometer: 1019 hPa
Summary: Light rain
Clouds: Mostly cloudy
Visibility: 6 miles , 10 km
Cloud details: Few Clouds 305 m
Mostly cloudy 457 m
2018/02/20 17:20 EGMC 201720Z 33012KT 9999 -RA FEW010 BKN015 06/04 Q1019